createdAt,value
2018-02-06T00:00:00.106Z,0.00
2018-02-06T00:01:00.094Z,0.00
2018-02-06T00:02:00.071Z,0.00
2018-02-06T00:03:00.062Z,0.00
2018-02-06T00:04:00.057Z,0.00
2018-02-06T00:05:00.024Z,0.00
2018-02-06T00:06:00.011Z,0.00
2018-02-06T00:06:59.993Z,0.00
2018-02-06T00:07:59.985Z,0.00
2018-02-06T00:08:59.973Z,0.00
2018-02-06T00:09:59.954Z,0.00
2018-02-06T00:10:59.930Z,0.00
2018-02-06T00:11:59.915Z,0.00
2018-02-06T00:12:59.899Z,0.00
2018-02-06T00:13:59.894Z,0.00
2018-02-06T00:14:59.872Z,0.00
2018-02-06T00:15:59.877Z,0.00
2018-02-06T00:16:59.850Z,0.00
2018-02-06T00:17:59.850Z,0.00
2018-02-06T00:18:59.830Z,0.00
2018-02-06T00:19:59.800Z,0.00
2018-02-06T00:20:59.785Z,0.00
2018-02-06T00:21:59.768Z,0.00
2018-02-06T00:22:59.757Z,0.00
2018-02-06T00:23:59.730Z,0.00
2018-02-06T00:24:59.715Z,0.00
2018-02-06T00:25:59.696Z,0.00
2018-02-06T00:26:59.712Z,0.00
2018-02-06T00:27:59.667Z,0.00
2018-02-06T00:28:59.657Z,0.00
2018-02-06T00:29:59.639Z,0.00
2018-02-06T00:30:59.621Z,0.00
2018-02-06T00:31:59.611Z,0.00
2018-02-06T00:32:59.589Z,0.00
2018-02-06T00:33:59.578Z,0.00
2018-02-06T00:34:59.573Z,0.00
2018-02-06T00:35:59.544Z,0.00
2018-02-06T00:36:59.530Z,0.00
2018-02-06T00:37:59.512Z,0.00
2018-02-06T00:38:59.494Z,0.00
2018-02-06T00:39:59.487Z,0.00
2018-02-06T00:40:59.469Z,0.00
2018-02-06T00:41:59.453Z,0.00
2018-02-06T00:42:59.437Z,0.00
2018-02-06T00:43:59.428Z,0.00
2018-02-06T00:44:59.403Z,0.00
2018-02-06T00:45:59.389Z,0.00
2018-02-06T00:46:59.377Z,0.00
2018-02-06T00:47:59.352Z,0.00
2018-02-06T00:48:59.338Z,0.00
2018-02-06T00:49:59.322Z,0.00
2018-02-06T00:50:59.313Z,0.00
2018-02-06T00:51:59.295Z,0.00
2018-02-06T00:52:59.295Z,0.00
2018-02-06T00:53:59.271Z,0.00
2018-02-06T00:54:59.253Z,0.00
2018-02-06T00:55:59.236Z,0.00
2018-02-06T00:56:59.213Z,0.00
2018-02-06T00:57:59.204Z,0.00
2018-02-06T00:58:59.187Z,0.00
2018-02-06T00:59:59.179Z,0.00
2018-02-06T01:00:59.153Z,0.00
2018-02-06T01:01:59.137Z,0.00
2018-02-06T01:02:59.121Z,0.00
2018-02-06T01:03:59.103Z,0.00
2018-02-06T01:04:59.112Z,0.00
2018-02-06T01:05:59.091Z,0.00
2018-02-06T01:06:59.061Z,0.00
2018-02-06T01:07:59.049Z,0.00
2018-02-06T01:08:59.037Z,0.00
2018-02-06T01:09:59.011Z,0.00
2018-02-06T01:10:59.006Z,0.00
2018-02-06T01:11:58.985Z,0.00
2018-02-06T01:12:58.967Z,0.00
2018-02-06T01:13:58.951Z,0.00
2018-02-06T01:14:58.935Z,0.00
2018-02-06T01:15:58.917Z,0.00
2018-02-06T01:16:58.900Z,0.00
2018-02-06T01:17:58.885Z,0.00
2018-02-06T01:18:58.872Z,0.00
2018-02-06T01:19:58.851Z,0.00
2018-02-06T01:20:58.846Z,0.00
2018-02-06T01:21:58.819Z,0.00
2018-02-06T01:22:58.809Z,0.00
2018-02-06T01:23:58.799Z,0.00
2018-02-06T01:24:58.774Z,0.00
2018-02-06T01:25:58.760Z,0.00
2018-02-06T01:26:58.775Z,0.00
2018-02-06T01:27:58.734Z,0.00
2018-02-06T01:28:58.708Z,0.00
2018-02-06T01:29:58.696Z,0.00
2018-02-06T01:30:58.681Z,0.00
2018-02-06T01:31:58.670Z,0.00
2018-02-06T01:32:58.655Z,0.00
2018-02-06T01:33:58.634Z,0.00
2018-02-06T01:34:58.630Z,0.00
2018-02-06T01:35:58.601Z,0.00
2018-02-06T01:36:58.589Z,0.00
2018-02-06T01:37:58.568Z,0.00
2018-02-06T01:38:58.552Z,0.00
2018-02-06T01:39:58.538Z,0.00
2018-02-06T01:40:58.524Z,0.00
2018-02-06T01:41:58.514Z,0.00
2018-02-06T01:42:58.491Z,0.00
2018-02-06T01:43:58.470Z,0.00
2018-02-06T01:44:58.464Z,0.00
2018-02-06T01:45:58.439Z,0.00
2018-02-06T01:46:58.430Z,0.00
2018-02-06T01:47:58.419Z,0.00
2018-02-06T01:48:58.397Z,0.00
2018-02-06T01:49:58.384Z,0.00
2018-02-06T01:50:58.373Z,0.00
2018-02-06T01:51:58.353Z,0.00
2018-02-06T01:52:58.333Z,0.00
2018-02-06T01:53:58.318Z,0.00
2018-02-06T01:54:58.307Z,0.00
2018-02-06T01:55:58.289Z,0.00
2018-02-06T01:56:58.287Z,0.00
2018-02-06T01:57:58.249Z,0.00
2018-02-06T01:58:58.237Z,0.00
2018-02-06T01:59:58.219Z,0.00
2018-02-06T02:00:58.235Z,0.00
2018-02-06T02:01:58.189Z,0.00
2018-02-06T02:02:58.229Z,0.00
2018-02-06T02:03:58.171Z,0.00
2018-02-06T02:04:58.154Z,0.00
2018-02-06T02:05:58.127Z,0.00
2018-02-06T02:06:58.173Z,0.00
2018-02-06T02:07:58.123Z,0.00
2018-02-06T02:08:58.106Z,0.00
2018-02-06T02:09:58.067Z,0.00
2018-02-06T02:10:58.061Z,0.00
2018-02-06T02:11:58.046Z,0.00
2018-02-06T02:12:58.031Z,0.00
2018-02-06T02:13:58.004Z,0.00
2018-02-06T02:14:58.001Z,0.00
2018-02-06T02:15:57.995Z,0.00
2018-02-06T02:16:57.970Z,0.00
2018-02-06T02:17:57.935Z,0.00
2018-02-06T02:18:57.921Z,0.00
2018-02-06T02:19:57.908Z,0.00
2018-02-06T02:20:57.891Z,0.00
2018-02-06T02:21:57.906Z,0.00
2018-02-06T02:22:57.868Z,0.00
2018-02-06T02:23:57.844Z,0.00
2018-02-06T02:24:57.826Z,0.00
2018-02-06T02:25:57.828Z,0.00
2018-02-06T02:26:57.794Z,0.00
2018-02-06T02:27:57.777Z,0.00
2018-02-06T02:28:57.763Z,0.00
2018-02-06T02:29:57.753Z,0.00
2018-02-06T02:30:57.754Z,0.00
2018-02-06T02:31:57.713Z,0.00
2018-02-06T02:32:57.700Z,0.00
2018-02-06T02:33:57.688Z,0.00
2018-02-06T02:34:57.676Z,0.00
2018-02-06T02:35:57.652Z,0.00
2018-02-06T02:36:57.634Z,0.00
2018-02-06T02:37:57.617Z,0.00
2018-02-06T02:38:57.601Z,0.00
2018-02-06T02:39:57.586Z,0.00
2018-02-06T02:40:57.574Z,0.00
2018-02-06T04:38:55.707Z,0.00
2018-02-06T04:39:55.654Z,0.00
2018-02-06T04:40:55.645Z,0.00
2018-02-06T04:41:55.617Z,0.00
2018-02-06T04:42:55.599Z,0.00
2018-02-06T04:43:55.590Z,0.00
2018-02-06T04:44:55.571Z,0.00
2018-02-06T04:45:55.564Z,0.00
2018-02-06T04:46:55.540Z,0.00
2018-02-06T04:47:55.520Z,0.00
2018-02-06T04:48:55.505Z,0.00
2018-02-06T04:49:55.491Z,0.00
2018-02-06T04:50:55.470Z,0.00
2018-02-06T04:51:55.467Z,0.00
2018-02-06T04:52:55.437Z,0.00
2018-02-06T04:53:55.438Z,0.00
2018-02-06T04:54:55.410Z,0.00
2018-02-06T04:55:55.401Z,0.00
2018-02-06T04:56:55.375Z,0.00
2018-02-06T04:57:55.357Z,0.00
2018-02-06T04:58:55.362Z,0.00
2018-02-06T04:59:55.326Z,0.00
2018-02-06T05:00:55.310Z,0.00
2018-02-06T05:01:55.288Z,0.00
2018-02-06T05:02:55.321Z,0.00
2018-02-06T05:03:55.259Z,0.00
2018-02-06T05:04:55.248Z,0.00
2018-02-06T05:05:55.235Z,0.00
2018-02-06T05:06:55.220Z,0.00
2018-02-06T05:07:55.198Z,0.00
2018-02-06T05:08:55.182Z,0.00
2018-02-06T05:09:55.165Z,0.00
2018-02-06T05:10:55.144Z,0.00
2018-02-06T05:11:55.138Z,0.00
2018-02-06T05:12:55.134Z,0.00
2018-02-06T05:13:55.102Z,0.00
2018-02-06T05:14:55.091Z,0.00
2018-02-06T05:15:55.066Z,0.00
2018-02-06T05:16:55.051Z,0.00
2018-02-06T05:17:55.042Z,0.00
2018-02-06T05:18:55.024Z,0.00
2018-02-06T05:19:54.999Z,0.00
2018-02-06T05:20:54.992Z,0.00
2018-02-06T05:21:54.981Z,0.00
2018-02-06T05:22:54.954Z,0.00
2018-02-06T05:23:54.952Z,0.00
2018-02-06T05:24:54.919Z,0.00
2018-02-06T05:25:54.904Z,0.00
2018-02-06T05:26:54.892Z,0.00
2018-02-06T05:27:54.871Z,0.00
2018-02-06T05:28:54.850Z,0.00
2018-02-06T05:29:54.837Z,0.00
2018-02-06T05:30:54.820Z,0.00
2018-02-06T05:31:54.803Z,0.00
2018-02-06T05:32:54.796Z,0.00
2018-02-06T05:33:54.775Z,0.00
2018-02-06T05:34:54.759Z,0.00
2018-02-06T05:35:54.746Z,0.00
2018-02-06T05:36:54.730Z,0.00
2018-02-06T05:37:54.716Z,0.00
2018-02-06T05:38:54.695Z,0.00
2018-02-06T05:39:54.679Z,0.00
2018-02-06T05:40:54.660Z,0.00
2018-02-06T05:41:54.648Z,0.00
2018-02-06T05:42:54.630Z,0.00
2018-02-06T05:43:54.625Z,0.00
2018-02-06T05:44:54.593Z,0.00
2018-02-06T05:45:54.598Z,0.00
2018-02-06T05:46:54.562Z,0.00
2018-02-06T05:47:54.554Z,0.00
2018-02-06T05:48:54.532Z,0.00
2018-02-06T05:49:54.517Z,0.00
2018-02-06T05:50:54.506Z,0.00
2018-02-06T05:51:54.478Z,0.00
2018-02-06T05:52:54.667Z,0.00
2018-02-06T05:53:54.449Z,0.00
2018-02-06T05:54:54.439Z,0.00
2018-02-06T05:55:54.417Z,0.00
2018-02-06T05:56:54.402Z,0.00
2018-02-06T05:57:54.383Z,0.00
2018-02-06T05:58:54.368Z,0.00
2018-02-06T05:59:54.352Z,0.00
2018-02-06T06:00:54.345Z,0.00
2018-02-06T06:01:54.320Z,0.00
2018-02-06T06:02:54.305Z,0.00
2018-02-06T06:03:54.284Z,0.00
2018-02-06T06:04:54.267Z,0.00
2018-02-06T06:05:54.250Z,0.00
2018-02-06T06:06:54.235Z,0.00
2018-02-06T06:07:54.247Z,0.00
2018-02-06T06:08:54.201Z,0.00
2018-02-06T06:09:54.187Z,0.00
2018-02-06T06:10:54.169Z,0.00
2018-02-06T06:11:54.157Z,0.00
2018-02-06T06:12:54.141Z,0.00
2018-02-06T06:13:54.122Z,0.00
2018-02-06T06:14:54.107Z,0.00
2018-02-06T06:15:54.090Z,0.00
2018-02-06T06:16:54.086Z,0.00
2018-02-06T06:17:54.057Z,0.00
2018-02-06T06:18:54.038Z,0.00
2018-02-06T06:19:54.026Z,0.00
2018-02-06T06:20:54.021Z,0.00
2018-02-06T06:21:54.006Z,0.00
2018-02-06T06:22:54.000Z,0.00
2018-02-06T06:23:53.960Z,0.00
2018-02-06T06:24:53.948Z,4.00
2018-02-06T06:25:53.936Z,0.00
2018-02-06T06:26:53.909Z,0.00
2018-02-06T06:27:53.907Z,4.00
2018-02-06T06:28:53.880Z,0.00
2018-02-06T06:29:53.866Z,4.00
2018-02-06T06:30:53.842Z,4.00
2018-02-06T06:31:53.826Z,4.00
2018-02-06T06:32:53.811Z,4.00
2018-02-06T06:33:53.794Z,8.00
2018-02-06T06:34:53.789Z,8.00
2018-02-06T06:35:53.762Z,8.00
2018-02-06T06:36:53.756Z,8.00
2018-02-06T06:37:53.736Z,8.00
2018-02-06T06:38:53.715Z,16.00
2018-02-06T06:39:53.698Z,16.00
2018-02-06T06:40:53.681Z,20.00
2018-02-06T06:41:53.665Z,24.00
2018-02-06T06:42:53.655Z,24.00
2018-02-06T06:43:53.640Z,32.00
2018-02-06T06:44:53.615Z,36.00
2018-02-06T06:45:53.596Z,40.00
2018-02-06T06:46:53.581Z,48.00
2018-02-06T06:47:53.576Z,52.00
2018-02-06T06:48:53.565Z,64.00
2018-02-06T06:49:53.535Z,68.00
2018-02-06T06:50:53.523Z,80.00
2018-02-06T06:51:53.542Z,92.00
2018-02-06T06:52:53.493Z,104.00
2018-02-06T06:53:53.473Z,112.00
2018-02-06T06:54:53.470Z,128.00
2018-02-06T06:55:53.466Z,140.00
2018-02-06T06:56:53.424Z,156.00
2018-02-06T06:57:53.403Z,172.00
2018-02-06T06:58:53.387Z,188.00
2018-02-06T06:59:53.394Z,204.00
2018-02-06T07:00:53.354Z,224.00
2018-02-06T07:01:53.334Z,244.00
2018-02-06T07:02:53.349Z,264.00
2018-02-06T07:03:53.356Z,288.00
2018-02-06T07:04:53.293Z,312.00
2018-02-06T07:05:53.274Z,332.00
2018-02-06T07:06:53.252Z,360.00
2018-02-06T07:07:53.238Z,384.00
2018-02-06T07:08:53.251Z,412.00
2018-02-06T07:09:53.207Z,440.00
2018-02-06T07:10:53.200Z,464.00
2018-02-06T07:11:53.174Z,492.00
2018-02-06T07:12:53.153Z,516.00
2018-02-06T07:13:53.154Z,540.00
2018-02-06T07:14:53.125Z,572.00
2018-02-06T07:15:53.110Z,592.00
2018-02-06T07:16:53.161Z,620.00
2018-02-06T07:17:53.078Z,644.00
2018-02-06T07:18:53.061Z,668.00
2018-02-06T07:19:53.044Z,696.00
2018-02-06T07:20:53.047Z,724.00
2018-02-06T07:21:53.036Z,756.00
2018-02-06T07:22:53.094Z,792.00
2018-02-06T07:23:52.979Z,836.00
2018-02-06T07:24:52.956Z,884.00
2018-02-06T07:25:52.979Z,940.00
2018-02-06T07:26:52.962Z,972.00
2018-02-06T07:27:52.910Z,964.00
2018-02-06T07:28:52.978Z,984.00
2018-02-06T07:29:52.894Z,1024.00
2018-02-06T07:30:52.874Z,1048.00
2018-02-06T07:31:52.852Z,1080.00
2018-02-06T07:32:52.828Z,1104.00
2018-02-06T07:33:52.830Z,1156.00
2018-02-06T07:34:52.808Z,1208.00
2018-02-06T07:35:52.779Z,1252.00
2018-02-06T07:36:52.766Z,1300.00
2018-02-06T07:37:52.747Z,1304.00
2018-02-06T07:38:52.731Z,1304.00
2018-02-06T07:39:52.714Z,1328.00
2018-02-06T07:40:52.704Z,1360.00
2018-02-06T07:41:52.681Z,1428.00
2018-02-06T07:42:52.670Z,1452.00
2018-02-06T07:43:52.658Z,1472.00
2018-02-06T07:44:52.635Z,1520.00
2018-02-06T07:45:52.618Z,1504.00
2018-02-06T07:46:52.597Z,1512.00
2018-02-06T07:47:52.618Z,1596.00
2018-02-06T07:48:52.570Z,1656.00
2018-02-06T07:49:52.554Z,1816.00
2018-02-06T07:50:52.545Z,1956.00
2018-02-06T07:51:52.523Z,2000.00
2018-02-06T07:52:52.501Z,1892.00
2018-02-06T07:53:52.491Z,1804.00
2018-02-06T07:54:52.470Z,1776.00
2018-02-06T07:55:52.456Z,1808.00
2018-02-06T07:56:52.436Z,1816.00
2018-02-06T07:57:52.425Z,1952.00
2018-02-06T07:58:52.414Z,1884.00
2018-02-06T07:59:52.393Z,1856.00
2018-02-06T08:00:52.375Z,1876.00
2018-02-06T08:01:52.379Z,1980.00
2018-02-06T08:02:52.345Z,2132.00
2018-02-06T08:03:52.328Z,2216.00
2018-02-06T08:04:52.311Z,2240.00
2018-02-06T08:05:52.292Z,2264.00
2018-02-06T08:06:52.278Z,2320.00
2018-02-06T08:07:52.261Z,2372.00
2018-02-06T08:08:52.255Z,2468.00
2018-02-06T08:09:52.242Z,2552.00
2018-02-06T08:10:52.220Z,2584.00
2018-02-06T08:11:52.203Z,2688.00
2018-02-06T08:12:52.187Z,2864.00
2018-02-06T08:13:52.167Z,3068.00
2018-02-06T08:14:52.164Z,3656.00
2018-02-06T08:15:52.139Z,4064.00
2018-02-06T08:16:52.118Z,4828.00
2018-02-06T08:17:52.104Z,4648.00
2018-02-06T08:18:52.095Z,4420.00
2018-02-06T08:19:52.077Z,4360.00
2018-02-06T08:20:52.083Z,4160.00
2018-02-06T08:21:52.057Z,4024.00
2018-02-06T08:22:52.024Z,4332.00
2018-02-06T08:23:52.035Z,4684.00
2018-02-06T08:24:52.008Z,4560.00
2018-02-06T08:25:51.981Z,4768.00
2018-02-06T08:26:51.968Z,5120.00
2018-02-06T08:27:51.953Z,5588.00
2018-02-06T08:28:51.954Z,5972.00
2018-02-06T08:29:51.915Z,6448.00
2018-02-06T08:30:51.908Z,6444.00
2018-02-06T08:31:51.896Z,6304.00
2018-02-06T08:32:51.879Z,6136.00
2018-02-06T08:33:51.866Z,6264.00
2018-02-06T08:34:51.844Z,6528.00
2018-02-06T08:35:51.836Z,6584.00
2018-02-06T08:36:51.813Z,6292.00
2018-02-06T08:37:51.806Z,6380.00
2018-02-06T08:38:51.784Z,6680.00
2018-02-06T08:39:51.772Z,6692.00
2018-02-06T08:40:51.754Z,6660.00
2018-02-06T08:41:51.767Z,6592.00
2018-02-06T08:42:51.727Z,6816.00
2018-02-06T08:43:51.737Z,7100.00
2018-02-06T08:44:51.704Z,7184.00
2018-02-06T08:45:51.687Z,7004.00
2018-02-06T08:46:51.675Z,5856.00
2018-02-06T08:47:51.660Z,4916.00
2018-02-06T08:48:51.650Z,4476.00
2018-02-06T08:49:51.659Z,4304.00
2018-02-06T08:50:51.642Z,4452.00
2018-02-06T08:51:51.608Z,4604.00
2018-02-06T08:52:51.593Z,4880.00
2018-02-06T08:53:51.582Z,5088.00
2018-02-06T08:54:51.567Z,5156.00
2018-02-06T08:55:51.552Z,4992.00
2018-02-06T08:56:51.545Z,4800.00
2018-02-06T08:57:51.527Z,4900.00
2018-02-06T08:58:51.516Z,4940.00
2018-02-06T08:59:51.502Z,4996.00
2018-02-06T09:00:51.485Z,5140.00
2018-02-06T09:01:51.472Z,5280.00
2018-02-06T09:02:51.475Z,5456.00
2018-02-06T09:03:51.460Z,5468.00
2018-02-06T09:04:51.426Z,5460.00
2018-02-06T09:05:51.416Z,5496.00
2018-02-06T09:06:51.415Z,5580.00
2018-02-06T09:07:51.389Z,5764.00
2018-02-06T09:08:51.383Z,5996.00
2018-02-06T09:09:51.360Z,6328.00
2018-02-06T09:10:51.429Z,6820.00
2018-02-06T09:11:51.361Z,7540.00
2018-02-06T09:12:51.319Z,8412.00
2018-02-06T09:13:51.304Z,9336.00
2018-02-06T09:14:51.297Z,10272.00
2018-02-06T09:15:51.274Z,11196.00
2018-02-06T09:16:51.273Z,11932.00
2018-02-06T09:17:51.293Z,12624.00
2018-02-06T09:18:51.260Z,12772.00
2018-02-06T09:19:51.218Z,13844.00
2018-02-06T09:20:51.207Z,14216.00
2018-02-06T09:21:51.193Z,14912.00
2018-02-06T09:22:51.183Z,14816.00
2018-02-06T09:23:51.167Z,14988.00
2018-02-06T09:24:51.177Z,15180.00
2018-02-06T09:25:51.139Z,15648.00
2018-02-06T09:26:51.129Z,14252.00
2018-02-06T09:27:51.108Z,14864.00
2018-02-06T09:28:51.108Z,14292.00
2018-02-06T09:29:51.082Z,15552.00
2018-02-06T09:30:51.089Z,13996.00
2018-02-06T09:31:51.061Z,14436.00
2018-02-06T09:32:51.051Z,14576.00
2018-02-06T09:33:51.046Z,15120.00
2018-02-06T09:34:51.035Z,15232.00
2018-02-06T09:35:51.108Z,15116.00
2018-02-06T09:36:51.006Z,16128.00
2018-02-06T09:37:50.989Z,16736.00
2018-02-06T09:38:51.001Z,17600.00
2018-02-06T09:39:50.972Z,18176.00
2018-02-06T09:40:50.953Z,17376.00
2018-02-06T09:41:50.947Z,17088.00
2018-02-06T09:42:50.936Z,17856.00
2018-02-06T09:43:50.924Z,18848.00
2018-02-06T09:44:50.925Z,20704.00
2018-02-06T09:45:50.892Z,21312.00
2018-02-06T09:46:50.897Z,21184.00
2018-02-06T09:47:50.873Z,19520.00
2018-02-06T09:48:50.856Z,17856.00
2018-02-06T09:49:50.850Z,18368.00
2018-02-06T09:50:50.851Z,19104.00
2018-02-06T09:51:50.827Z,20000.00
2018-02-06T09:52:50.816Z,19296.00
2018-02-06T09:53:50.807Z,22848.00
2018-02-06T09:54:50.794Z,22656.00
2018-02-06T09:55:50.782Z,22528.00
2018-02-06T09:56:50.772Z,22912.00
2018-02-06T09:57:50.763Z,23904.00
2018-02-06T09:58:50.750Z,24672.00
2018-02-06T09:59:50.742Z,25280.00
2018-02-06T10:00:50.738Z,22688.00
2018-02-06T10:01:50.719Z,22624.00
2018-02-06T10:02:50.709Z,22912.00
2018-02-06T10:03:50.695Z,18880.00
2018-02-06T10:04:50.708Z,17600.00
2018-02-06T10:05:50.676Z,16864.00
2018-02-06T10:06:50.673Z,15384.00
2018-02-06T10:07:50.668Z,14660.00
2018-02-06T10:08:50.650Z,14380.00
2018-02-06T10:09:50.638Z,14116.00
2018-02-06T10:10:50.630Z,13884.00
2018-02-06T10:11:50.620Z,13480.00
2018-02-06T10:12:50.617Z,17408.00
2018-02-06T10:13:50.601Z,13280.00
2018-02-06T10:14:50.590Z,13668.00
2018-02-06T10:15:50.580Z,18112.00
2018-02-06T10:16:50.602Z,14380.00
2018-02-06T10:17:50.561Z,15600.00
2018-02-06T10:18:50.543Z,15968.00
2018-02-06T10:19:50.550Z,16352.00
2018-02-06T10:20:50.541Z,16640.00
2018-02-06T10:21:50.520Z,16896.00
2018-02-06T10:22:50.520Z,17024.00
2018-02-06T10:23:50.492Z,17408.00
2018-02-06T10:24:50.493Z,18016.00
2018-02-06T10:25:50.468Z,18592.00
2018-02-06T10:26:50.461Z,22880.00
2018-02-06T10:27:50.447Z,30624.00
2018-02-06T10:28:50.438Z,29088.00
2018-02-06T10:29:50.428Z,22784.00
2018-02-06T10:30:50.416Z,20736.00
2018-02-06T10:31:50.399Z,20736.00
2018-02-06T10:32:50.408Z,18944.00
2018-02-06T10:33:50.388Z,18688.00
2018-02-06T10:34:50.376Z,18496.00
2018-02-06T10:35:50.364Z,19744.00
2018-02-06T10:36:50.360Z,22464.00
2018-02-06T10:37:50.339Z,22336.00
2018-02-06T10:38:50.344Z,22336.00
2018-02-06T10:39:50.368Z,22368.00
2018-02-06T10:40:50.305Z,33472.00
2018-02-06T10:41:50.312Z,26816.00
2018-02-06T10:42:50.285Z,24320.00
2018-02-06T10:43:50.277Z,21664.00
2018-02-06T10:44:50.260Z,23456.00
2018-02-06T10:45:50.264Z,20544.00
2018-02-06T10:46:50.254Z,19040.00
2018-02-06T10:47:50.228Z,18976.00
2018-02-06T10:48:50.255Z,19456.00
2018-02-06T10:49:50.214Z,17760.00
2018-02-06T10:50:50.199Z,17696.00
2018-02-06T10:51:50.192Z,18944.00
2018-02-06T10:52:50.220Z,24960.00
2018-02-06T10:53:50.178Z,18272.00
2018-02-06T10:54:50.162Z,31584.00
2018-02-06T10:55:50.148Z,28352.00
2018-02-06T10:56:50.135Z,27872.00
2018-02-06T10:57:50.129Z,22208.00
2018-02-06T10:58:50.131Z,28928.00
2018-02-06T10:59:50.104Z,20192.00
2018-02-06T11:00:50.098Z,20576.00
2018-02-06T11:01:50.087Z,21728.00
2018-02-06T11:02:50.075Z,23008.00
2018-02-06T11:03:50.064Z,22208.00
2018-02-06T11:04:50.045Z,30816.00
2018-02-06T11:05:50.035Z,23072.00
2018-02-06T11:06:50.029Z,19968.00
2018-02-06T11:07:50.022Z,19424.00
2018-02-06T11:08:50.005Z,19392.00
2018-02-06T11:09:49.993Z,17664.00
2018-02-06T11:10:49.982Z,17184.00
2018-02-06T11:11:49.972Z,16768.00
2018-02-06T11:12:49.962Z,16704.00
2018-02-06T11:13:49.964Z,17184.00
2018-02-06T11:14:49.940Z,17952.00
2018-02-06T11:15:49.948Z,19072.00
2018-02-06T11:16:49.951Z,18848.00
2018-02-06T11:17:49.904Z,18976.00
2018-02-06T11:18:49.908Z,19168.00
2018-02-06T11:19:49.883Z,19680.00
2018-02-06T11:20:49.909Z,17792.00
2018-02-06T11:21:49.871Z,16928.00
2018-02-06T11:22:49.851Z,15924.00
2018-02-06T11:23:49.840Z,15600.00
2018-02-06T11:24:49.831Z,15540.00
2018-02-06T11:25:49.832Z,15460.00
2018-02-06T11:26:49.818Z,15112.00
2018-02-06T11:27:49.802Z,14496.00
2018-02-06T11:28:49.791Z,14000.00
2018-02-06T11:29:49.772Z,14196.00
2018-02-06T11:30:49.762Z,14692.00
2018-02-06T11:31:49.747Z,15156.00
2018-02-06T11:32:49.746Z,15380.00
2018-02-06T11:33:49.740Z,15488.00
2018-02-06T11:34:49.716Z,15424.00
2018-02-06T11:35:49.719Z,15324.00
2018-02-06T11:36:49.689Z,15300.00
2018-02-06T11:37:49.685Z,14916.00
2018-02-06T11:38:49.672Z,14416.00
2018-02-06T11:39:49.656Z,14252.00
2018-02-06T11:40:49.644Z,14492.00
2018-02-06T11:41:49.633Z,15060.00
2018-02-06T11:42:49.628Z,15628.00
2018-02-06T11:43:49.613Z,15996.00
2018-02-06T11:44:49.605Z,16136.00
2018-02-06T11:45:49.602Z,16168.00
2018-02-06T11:46:49.575Z,16384.00
2018-02-06T11:47:49.600Z,16672.00
2018-02-06T11:48:49.561Z,16640.00
2018-02-06T11:49:49.558Z,16608.00
2018-02-06T11:50:49.530Z,16672.00
2018-02-06T11:51:49.517Z,16992.00
2018-02-06T11:52:49.504Z,17504.00
2018-02-06T11:53:49.509Z,17536.00
2018-02-06T11:54:49.487Z,17568.00
2018-02-06T11:55:49.477Z,17504.00
2018-02-06T11:56:49.473Z,17664.00
2018-02-06T11:57:49.455Z,17568.00
2018-02-06T11:58:49.442Z,17664.00
2018-02-06T11:59:50.067Z,17888.00
2018-02-06T12:00:49.421Z,18368.00
2018-02-06T12:01:49.401Z,19200.00
2018-02-06T12:02:49.391Z,18176.00
2018-02-06T12:03:49.412Z,17760.00
2018-02-06T12:04:49.375Z,18144.00
2018-02-06T12:05:49.359Z,18976.00
2018-02-06T12:06:49.349Z,19936.00
2018-02-06T12:07:49.337Z,20576.00
2018-02-06T12:08:49.348Z,20800.00
2018-02-06T12:09:49.331Z,20992.00
2018-02-06T12:10:49.302Z,20800.00
2018-02-06T12:11:49.301Z,20928.00
2018-02-06T12:12:49.293Z,22112.00
2018-02-06T12:13:49.392Z,24608.00
2018-02-06T12:14:49.256Z,28960.00
2018-02-06T12:15:49.254Z,28160.00
2018-02-06T12:16:49.234Z,34400.00
2018-02-06T12:17:49.222Z,27328.00
2018-02-06T12:18:49.221Z,25408.00
2018-02-06T12:19:49.208Z,28032.00
2018-02-06T12:20:49.203Z,30560.00
2018-02-06T12:21:49.175Z,33632.00
2018-02-06T12:22:49.165Z,37088.00
2018-02-06T12:23:49.165Z,46048.00
2018-02-06T12:24:49.145Z,49760.00
2018-02-06T12:25:49.133Z,43968.00
2018-02-06T12:26:49.140Z,38560.00
2018-02-06T12:27:49.118Z,48448.00
2018-02-06T12:28:49.113Z,51392.00
2018-02-06T12:29:49.095Z,44000.00
2018-02-06T12:30:49.080Z,47712.00
2018-02-06T12:31:49.097Z,48448.00
2018-02-06T12:32:49.069Z,42976.00
2018-02-06T12:33:49.056Z,41600.00
2018-02-06T12:34:49.042Z,24512.00
2018-02-06T12:35:49.033Z,22336.00
2018-02-06T12:36:49.022Z,20992.00
2018-02-06T12:37:49.013Z,20736.00
2018-02-06T12:38:49.005Z,20032.00
2018-02-06T12:39:48.995Z,17408.00
2018-02-06T12:40:48.990Z,16704.00
2018-02-06T12:41:48.985Z,15940.00
2018-02-06T12:42:48.975Z,15900.00
2018-02-06T12:43:48.961Z,15764.00
2018-02-06T12:44:48.957Z,15764.00
2018-02-06T12:45:48.941Z,15620.00
2018-02-06T12:46:48.937Z,15372.00
2018-02-06T12:47:48.926Z,15380.00
2018-02-06T12:48:48.909Z,15980.00
2018-02-06T12:49:48.904Z,15760.00
2018-02-06T12:50:48.897Z,15784.00
2018-02-06T12:51:48.898Z,15080.00
2018-02-06T12:52:48.884Z,14524.00
2018-02-06T12:53:48.869Z,14164.00
2018-02-06T12:54:48.857Z,13852.00
2018-02-06T12:55:48.848Z,13464.00
2018-02-06T12:56:48.850Z,13072.00
2018-02-06T12:57:48.826Z,12656.00
2018-02-06T12:58:48.839Z,12200.00
2018-02-06T12:59:48.804Z,11792.00
2018-02-06T13:00:48.802Z,11488.00
2018-02-06T13:01:48.784Z,11312.00
2018-02-06T13:02:48.776Z,11312.00
2018-02-06T13:03:48.770Z,11468.00
2018-02-06T13:04:48.772Z,11744.00
2018-02-06T13:05:48.742Z,11976.00
2018-02-06T13:06:48.731Z,12004.00
2018-02-06T13:07:48.720Z,11888.00
2018-02-06T13:08:48.781Z,11728.00
2018-02-06T13:09:48.702Z,11664.00
2018-02-06T13:10:48.693Z,11596.00
2018-02-06T13:11:48.679Z,11540.00
2018-02-06T13:12:48.673Z,11556.00
2018-02-06T13:13:48.652Z,11596.00
2018-02-06T13:14:48.640Z,11652.00
2018-02-06T13:15:48.639Z,11572.00
2018-02-06T13:16:48.643Z,11364.00
2018-02-06T13:17:48.609Z,10968.00
2018-02-06T13:18:48.602Z,10388.00
2018-02-06T13:19:48.595Z,9652.00
2018-02-06T13:20:48.576Z,8940.00
2018-02-06T13:21:48.566Z,8592.00
2018-02-06T13:22:48.575Z,8708.00
2018-02-06T13:23:48.545Z,9116.00
2018-02-06T13:24:48.540Z,9904.00
2018-02-06T13:25:48.524Z,10824.00
2018-02-06T13:26:48.516Z,11656.00
2018-02-06T13:27:48.497Z,12544.00
2018-02-06T13:28:48.482Z,13608.00
2018-02-06T13:29:48.475Z,14608.00
2018-02-06T13:30:48.478Z,15068.00
2018-02-06T13:31:48.449Z,14916.00
2018-02-06T13:32:48.450Z,14168.00
2018-02-06T13:33:48.434Z,13016.00
2018-02-06T13:34:48.419Z,11740.00
2018-02-06T13:35:48.403Z,10616.00
2018-02-06T13:36:48.396Z,9776.00
2018-02-06T13:37:48.385Z,9184.00
2018-02-06T13:38:48.389Z,8700.00
2018-02-06T13:39:48.363Z,8304.00
2018-02-06T13:40:48.348Z,8028.00
2018-02-06T13:41:48.371Z,7824.00
2018-02-06T13:42:48.326Z,7664.00
2018-02-06T13:43:48.328Z,7632.00
2018-02-06T13:44:48.330Z,7840.00
2018-02-06T13:45:48.318Z,8116.00
2018-02-06T13:46:48.280Z,8316.00
2018-02-06T13:47:48.271Z,8404.00
2018-02-06T13:48:48.253Z,8316.00
2018-02-06T13:49:48.259Z,8072.00
2018-02-06T13:50:48.245Z,7848.00
2018-02-06T13:51:48.235Z,7792.00
2018-02-06T13:52:48.207Z,7820.00
2018-02-06T13:53:48.238Z,7852.00
2018-02-06T13:54:48.185Z,7884.00
2018-02-06T13:55:48.171Z,7960.00
2018-02-06T13:56:48.163Z,8064.00
2018-02-06T13:57:48.145Z,8144.00
2018-02-06T13:58:48.140Z,8116.00
2018-02-06T13:59:48.128Z,8072.00
2018-02-06T14:00:48.141Z,8036.00
2018-02-06T14:01:48.105Z,8040.00
2018-02-06T14:02:48.091Z,8072.00
2018-02-06T14:03:48.077Z,8104.00
2018-02-06T14:04:48.067Z,8072.00
2018-02-06T14:05:48.054Z,8024.00
2018-02-06T14:06:48.055Z,7876.00
2018-02-06T14:07:48.055Z,7684.00
2018-02-06T14:08:48.022Z,7376.00
2018-02-06T14:09:48.015Z,7100.00
2018-02-06T14:10:47.990Z,6820.00
2018-02-06T14:11:47.976Z,6404.00
2018-02-06T14:12:47.979Z,5868.00
2018-02-06T14:13:47.956Z,5256.00
2018-02-06T14:14:47.945Z,4728.00
2018-02-06T14:15:47.935Z,4348.00
2018-02-06T14:16:47.915Z,4108.00
2018-02-06T14:17:47.906Z,3984.00
2018-02-06T14:18:47.901Z,3884.00
2018-02-06T14:19:47.886Z,3828.00
2018-02-06T14:20:47.877Z,3788.00
2018-02-06T14:21:47.859Z,3808.00